createdAt,value
2019-05-01T00:00:48.680Z,1011.41
2019-05-01T00:01:48.944Z,1011.42
2019-05-01T00:02:48.662Z,1011.37
2019-05-01T00:03:48.708Z,1011.36
2019-05-01T00:04:48.948Z,1011.40
2019-05-01T00:05:48.794Z,1011.33
2019-05-01T00:06:48.644Z,1011.35
2019-05-01T00:07:48.631Z,1011.34
2019-05-01T00:08:48.591Z,1011.35
2019-05-01T00:09:48.641Z,1011.38
2019-05-01T00:10:48.573Z,1011.37
2019-05-01T00:11:48.688Z,1011.33
2019-05-01T00:12:48.560Z,1011.40
2019-05-01T00:13:48.577Z,1011.39
2019-05-01T00:14:48.547Z,1011.38
2019-05-01T00:15:48.580Z,1011.34
2019-05-01T00:16:48.540Z,1011.33
2019-05-01T00:17:48.600Z,1011.34
2019-05-01T00:18:48.484Z,1011.36
2019-05-01T00:19:48.505Z,1011.30
2019-05-01T00:20:48.463Z,1011.31
2019-05-01T00:21:48.549Z,1011.24
2019-05-01T00:22:48.444Z,1011.28
2019-05-01T00:23:48.539Z,1011.27
2019-05-01T00:24:48.420Z,1011.24
2019-05-01T00:25:48.451Z,1011.28
2019-05-01T00:26:48.434Z,1011.29
2019-05-01T00:27:48.502Z,1011.24
2019-05-01T00:28:48.396Z,1011.24
2019-05-01T00:29:48.478Z,1011.27
2019-05-01T00:30:48.353Z,1011.26
2019-05-01T00:31:48.424Z,1011.16
2019-05-01T00:32:48.360Z,1011.14
2019-05-01T00:33:48.413Z,1011.14
2019-05-01T00:34:48.307Z,1011.06
2019-05-01T00:35:48.414Z,1011.15
2019-05-01T00:36:48.283Z,1011.15
2019-05-01T00:37:48.354Z,1011.18
2019-05-01T00:38:48.266Z,1011.18
2019-05-01T00:39:48.349Z,1011.16
2019-05-01T00:40:48.242Z,1011.18
2019-05-01T00:41:48.357Z,1011.15
2019-05-01T00:42:48.251Z,1011.23
2019-05-01T00:43:48.266Z,1011.20
2019-05-01T00:44:48.200Z,1011.20
2019-05-01T00:45:48.284Z,1011.20
2019-05-01T00:46:48.181Z,1011.08
2019-05-01T00:47:48.293Z,1011.09
2019-05-01T00:48:48.181Z,1011.13
2019-05-01T00:49:48.205Z,1011.11
2019-05-01T00:50:48.141Z,1011.11
2019-05-01T00:51:48.221Z,1011.08
2019-05-01T00:52:48.117Z,1011.06
2019-05-01T00:53:48.162Z,1011.01
2019-05-01T00:54:48.094Z,1011.00
2019-05-01T00:55:48.144Z,1011.00
2019-05-01T00:56:48.068Z,1011.05
2019-05-01T00:57:48.159Z,1010.99
2019-05-01T00:58:48.073Z,1011.00
2019-05-01T00:59:48.070Z,1010.95
2019-05-01T01:00:48.024Z,1011.00
2019-05-01T01:01:48.088Z,1010.97
2019-05-01T01:02:48.003Z,1010.98
2019-05-01T01:03:48.134Z,1010.97
2019-05-01T01:04:47.983Z,1010.98
2019-05-01T01:05:48.009Z,1011.01
2019-05-01T01:06:47.967Z,1011.01
2019-05-01T01:07:48.026Z,1010.93
2019-05-01T01:08:47.965Z,1010.97
2019-05-01T01:09:48.038Z,1010.95
2019-05-01T01:10:47.917Z,1010.95
2019-05-01T01:11:47.949Z,1010.92
2019-05-01T01:12:47.893Z,1010.96
2019-05-01T01:13:47.992Z,1010.95
2019-05-01T01:14:47.889Z,1010.89
2019-05-01T01:15:47.981Z,1010.97
2019-05-01T01:16:47.853Z,1010.95
2019-05-01T01:17:47.901Z,1010.94
2019-05-01T01:18:47.861Z,1010.87
2019-05-01T01:19:47.902Z,1010.95
2019-05-01T01:20:47.821Z,1010.90
2019-05-01T01:21:47.921Z,1010.92
2019-05-01T01:22:47.786Z,1010.86
2019-05-01T01:23:47.857Z,1010.96
2019-05-01T01:24:47.790Z,1010.91
2019-05-01T01:25:47.842Z,1010.90
2019-05-01T01:26:47.741Z,1010.91
2019-05-01T01:27:47.858Z,1010.89
2019-05-01T01:28:47.725Z,1010.91
2019-05-01T01:29:47.804Z,1010.85
2019-05-01T01:30:56.021Z,1010.85
2019-05-01T01:31:48.692Z,1010.88
2019-05-01T01:32:47.791Z,1010.86
2019-05-01T01:33:47.699Z,1010.87
2019-05-01T01:34:47.736Z,1010.91
2019-05-01T01:35:47.646Z,1010.91
2019-05-01T01:36:47.720Z,1010.85
2019-05-01T01:37:47.627Z,1010.89
2019-05-01T01:38:47.730Z,1010.93
2019-05-01T01:39:47.638Z,1010.87
2019-05-01T01:40:47.640Z,1010.87
2019-05-01T01:41:47.592Z,1010.92
2019-05-01T01:42:47.651Z,1010.95
2019-05-01T01:43:47.562Z,1010.91
2019-05-01T01:44:47.701Z,1010.87
2019-05-01T01:45:47.552Z,1010.86
2019-05-01T01:46:47.578Z,1010.88
2019-05-01T01:47:47.513Z,1010.89
2019-05-01T01:48:47.603Z,1010.84
2019-05-01T01:49:47.539Z,1010.85
2019-05-01T01:50:47.609Z,1010.78
2019-05-01T01:51:47.473Z,1010.79
2019-05-01T01:52:47.522Z,1010.82
2019-05-01T01:53:47.455Z,1010.87
2019-05-01T01:54:47.560Z,1010.83
2019-05-01T01:55:47.430Z,1010.81
2019-05-01T01:56:47.544Z,1010.80
2019-05-01T01:57:47.415Z,1010.81
2019-05-01T01:58:47.456Z,1010.77
2019-05-01T01:59:47.578Z,1010.80
2019-05-01T02:00:47.497Z,1010.75
2019-05-01T02:01:47.367Z,1010.79
2019-05-01T02:02:47.410Z,1010.80
2019-05-01T02:03:47.388Z,1010.79
2019-05-01T02:04:47.459Z,1010.85
2019-05-01T02:05:47.381Z,1010.80
2019-05-01T02:06:47.413Z,1010.89
2019-05-01T02:07:47.301Z,1010.90
2019-05-01T02:08:56.258Z,1010.89
2019-05-01T02:09:48.307Z,1010.91
2019-05-01T02:10:47.372Z,1010.93
2019-05-01T02:11:47.258Z,1010.91
2019-05-01T02:12:47.348Z,1010.84
2019-05-01T02:13:47.234Z,1010.84
2019-05-01T02:14:47.269Z,1010.81
2019-05-01T02:15:47.256Z,1010.83
2019-05-01T02:16:47.283Z,1010.81
2019-05-01T02:17:47.196Z,1010.86
2019-05-01T02:18:47.292Z,1010.83
2019-05-01T02:19:47.179Z,1010.87
2019-05-01T02:20:47.240Z,1010.81
2019-05-01T02:21:47.150Z,1010.74
2019-05-01T02:22:47.216Z,1010.77
2019-05-01T02:23:47.131Z,1010.78
2019-05-01T02:24:47.231Z,1010.79
2019-05-01T02:25:47.132Z,1010.76
2019-05-01T02:26:47.141Z,1010.73
2019-05-01T02:27:47.094Z,1010.72
2019-05-01T02:28:47.153Z,1010.69
2019-05-01T02:29:47.063Z,1010.71
2019-05-01T02:30:47.197Z,1010.73
2019-05-01T02:31:47.045Z,1010.72
2019-05-01T02:32:47.083Z,1010.75
2019-05-01T02:33:47.103Z,1010.76
2019-05-01T02:34:47.095Z,1010.74
2019-05-01T02:35:47.034Z,1010.80
2019-05-01T02:36:47.110Z,1010.76
2019-05-01T02:37:46.980Z,1010.77
2019-05-01T02:38:47.018Z,1010.72
2019-05-01T02:39:46.954Z,1010.74
2019-05-01T02:40:47.042Z,1010.61
2019-05-01T02:41:46.962Z,1010.61
2019-05-01T02:42:47.048Z,1010.64
2019-05-01T02:43:46.910Z,1010.61
2019-05-01T02:44:46.958Z,1010.64
2019-05-01T02:45:46.889Z,1010.63
2019-05-01T02:46:47.007Z,1010.72
2019-05-01T02:47:46.879Z,1010.75
2019-05-01T02:48:46.883Z,1010.69
2019-05-01T02:49:46.847Z,1010.65
2019-05-01T02:50:46.905Z,1010.64
2019-05-01T02:51:46.858Z,1010.67
2019-05-01T02:52:46.914Z,1010.65
2019-05-01T02:53:46.803Z,1010.60
2019-05-01T02:54:46.822Z,1010.62
2019-05-01T02:55:46.800Z,1010.65
2019-05-01T02:56:46.873Z,1010.65
2019-05-01T02:57:46.763Z,1010.65
2019-05-01T02:58:46.916Z,1010.60
2019-05-01T02:59:46.739Z,1010.56
2019-05-01T03:00:46.762Z,1010.61
2019-05-01T03:01:48.077Z,1010.58
2019-05-01T03:02:46.779Z,1010.63
2019-05-01T03:03:46.701Z,1010.65
2019-05-01T03:04:46.801Z,1010.60
2019-05-01T03:05:46.681Z,1010.59
2019-05-01T03:06:46.740Z,1010.54
2019-05-01T03:07:46.658Z,1010.60
2019-05-01T03:08:46.728Z,1010.50
2019-05-01T03:09:46.651Z,1010.54
2019-05-01T03:10:46.730Z,1010.56
2019-05-01T03:11:46.635Z,1010.56
2019-05-01T03:12:46.655Z,1010.57
2019-05-01T03:13:46.589Z,1010.55
2019-05-01T03:14:46.687Z,1010.56
2019-05-01T03:15:46.575Z,1010.51
2019-05-01T03:16:46.738Z,1010.48
2019-05-01T03:17:46.577Z,1010.45
2019-05-01T03:18:46.587Z,1010.41
2019-05-01T03:19:46.528Z,1010.44
2019-05-01T03:20:46.616Z,1010.42
2019-05-01T03:21:46.530Z,1010.53
2019-05-01T03:22:46.644Z,1010.50
2019-05-01T03:23:46.479Z,1010.51
2019-05-01T03:24:46.537Z,1010.48
2019-05-01T03:25:46.472Z,1010.45
2019-05-01T03:26:46.547Z,1010.39
2019-05-01T03:27:46.459Z,1010.44
2019-05-01T03:28:46.566Z,1010.44
2019-05-01T03:29:46.424Z,1010.47
2019-05-01T03:30:46.476Z,1010.46
2019-05-01T03:32:12.905Z,1010.53
2019-05-01T03:32:47.411Z,1010.50
2019-05-01T03:33:46.491Z,1010.48
2019-05-01T03:34:52.306Z,1010.45
2019-05-01T03:35:47.426Z,1010.39
2019-05-01T03:36:46.344Z,1010.40
2019-05-01T03:37:46.439Z,1010.39
2019-05-01T03:38:46.325Z,1010.45
2019-05-01T03:39:46.420Z,1010.39
2019-05-01T03:40:46.294Z,1010.44
2019-05-01T03:41:46.341Z,1010.45
2019-05-01T03:42:46.300Z,1010.47
2019-05-01T03:43:46.349Z,1010.38
2019-05-01T03:44:46.270Z,1010.42
2019-05-01T03:46:47.294Z,1010.36
2019-05-01T03:47:46.283Z,1010.37
2019-05-01T03:48:46.235Z,1010.36
2019-05-01T03:49:46.288Z,1010.36
2019-05-01T03:50:47.273Z,1010.31
2019-05-01T03:51:46.302Z,1010.34
2019-05-01T03:52:46.162Z,1010.37
2019-05-01T03:53:46.258Z,1010.31
2019-05-01T03:54:46.146Z,1010.32
2019-05-01T03:56:47.183Z,1010.31
2019-05-01T03:58:47.185Z,1010.27
2019-05-01T03:59:46.158Z,1010.34
2019-05-01T04:00:46.081Z,1010.40
2019-05-01T04:02:47.114Z,1010.29
2019-05-01T04:03:46.117Z,1010.32
2019-05-01T04:04:46.035Z,1010.25
2019-05-01T04:05:46.096Z,1010.27
2019-05-01T04:06:46.019Z,1010.25
2019-05-01T04:08:47.154Z,1010.29
2019-05-01T04:09:46.141Z,1010.29
2019-05-01T04:10:45.973Z,1010.28
2019-05-01T04:11:46.048Z,1010.31
2019-05-01T04:12:45.962Z,1010.33
2019-05-01T04:13:46.080Z,1010.31
2019-05-01T04:14:45.951Z,1010.33
2019-05-01T04:15:45.980Z,1010.32
2019-05-01T04:16:45.911Z,1010.36
2019-05-01T04:17:45.975Z,1010.37
2019-05-01T04:18:45.914Z,1010.35
2019-05-01T04:19:46.018Z,1010.35
2019-05-01T04:20:45.867Z,1010.42
2019-05-01T04:21:46.020Z,1010.41
2019-05-01T04:22:45.843Z,1010.44
2019-05-01T04:24:46.897Z,1010.46
2019-05-01T04:25:46.242Z,1010.46
2019-05-01T04:26:45.805Z,1010.45
2019-05-01T04:27:46.394Z,1010.52
2019-05-01T04:28:45.785Z,1010.50
2019-05-01T04:29:46.508Z,1010.46
2019-05-01T04:30:45.770Z,1010.46
2019-05-01T04:32:52.429Z,1010.50
2019-05-01T04:33:46.807Z,1010.52
2019-05-01T04:34:45.755Z,1010.51
2019-05-01T04:36:46.760Z,1010.49
2019-05-01T04:38:46.726Z,1010.56
2019-05-01T04:39:47.090Z,1010.52
2019-05-01T04:40:45.696Z,1010.55
2019-05-01T04:41:47.675Z,1010.58
2019-05-01T04:42:45.651Z,1010.58
2019-05-01T04:44:46.710Z,1010.64
2019-05-01T04:45:47.530Z,1010.63
2019-05-01T04:46:45.595Z,1010.61
2019-05-01T04:47:48.471Z,1010.60
2019-05-01T04:48:45.580Z,1010.60
2019-05-01T04:49:47.749Z,1010.64
2019-05-01T04:50:45.587Z,1010.57
2019-05-01T04:51:47.878Z,1010.60
2019-05-01T04:52:45.524Z,1010.57
2019-05-01T04:53:47.980Z,1010.63
2019-05-01T04:54:51.999Z,1010.61
2019-05-01T04:55:48.264Z,1010.62
2019-05-01T04:56:45.470Z,1010.68
2019-05-01T04:58:46.514Z,1010.67
2019-05-01T05:00:46.521Z,1010.63
2019-05-01T05:02:46.485Z,1010.65
2019-05-01T05:04:46.433Z,1010.66
2019-05-01T05:05:48.182Z,1010.67
2019-05-01T05:06:45.416Z,1010.66
2019-05-01T05:08:46.433Z,1010.70
2019-05-01T05:10:46.458Z,1010.70
2019-05-01T05:11:48.232Z,1010.67
2019-05-01T05:12:45.298Z,1010.63
2019-05-01T05:14:46.340Z,1010.75
2019-05-01T05:16:46.351Z,1010.74
2019-05-01T05:19:48.408Z,1010.80
2019-05-01T05:20:45.722Z,1010.72
2019-05-01T05:21:48.574Z,1010.68
2019-05-01T05:30:12.985Z,1010.79
2019-05-01T05:31:11.827Z,1010.84
2019-05-01T05:32:12.903Z,1010.81
2019-05-01T05:33:18.082Z,1010.72
2019-05-01T05:34:12.831Z,1010.72
2019-05-01T05:35:11.730Z,1010.81
2019-05-01T05:36:11.821Z,1010.79
2019-05-01T05:37:11.737Z,1010.83
2019-05-01T05:38:11.828Z,1010.81
2019-05-01T05:39:11.686Z,1010.78
2019-05-01T05:40:11.743Z,1010.75
2019-05-01T05:41:11.655Z,1010.68
2019-05-01T05:42:11.885Z,1010.71
2019-05-01T05:43:11.639Z,1010.73
2019-05-01T05:44:11.768Z,1010.70
2019-05-01T05:45:11.618Z,1010.73
2019-05-01T05:46:11.686Z,1010.75
2019-05-01T05:47:11.628Z,1010.73
2019-05-01T05:48:11.694Z,1010.77
2019-05-01T05:49:11.575Z,1010.75
2019-05-01T05:50:11.600Z,1010.70
2019-05-01T05:51:11.562Z,1010.72
2019-05-01T05:52:11.753Z,1010.74
2019-05-01T05:53:11.551Z,1010.66
2019-05-01T05:54:11.627Z,1010.67
2019-05-01T05:55:11.519Z,1010.68
2019-05-01T05:56:11.557Z,1010.67
2019-05-01T05:57:11.529Z,1010.71
2019-05-01T05:58:12.605Z,1010.72
2019-05-01T05:59:11.465Z,1010.73
2019-05-01T06:00:11.569Z,1010.72
2019-05-01T06:01:11.443Z,1010.69
2019-05-01T06:03:12.522Z,1010.68
2019-05-01T06:04:11.494Z,1010.72
2019-05-01T06:05:11.464Z,1010.71
2019-05-01T06:06:11.511Z,1010.64
2019-05-01T06:07:11.376Z,1010.64
2019-05-01T06:08:11.462Z,1010.63
2019-05-01T06:09:13.764Z,1010.71
2019-05-01T06:10:11.432Z,1010.71
2019-05-01T06:11:11.340Z,1010.69
2019-05-01T06:12:11.450Z,1010.66
2019-05-01T06:13:11.354Z,1010.66
2019-05-01T06:15:12.344Z,1010.68
2019-05-01T06:16:16.181Z,1010.67
2019-05-01T06:17:11.269Z,1010.68
2019-05-01T06:18:11.314Z,1010.69
2019-05-01T06:19:14.677Z,1010.69
2019-05-01T06:20:11.309Z,1010.65
2019-05-01T06:21:12.918Z,1010.62
2019-05-01T06:23:15.758Z,1010.59
2019-05-01T06:24:12.189Z,1010.57
2019-05-01T06:25:21.243Z,1010.66
2019-05-01T06:26:12.171Z,1010.62
2019-05-01T06:28:12.234Z,1010.64
2019-05-01T06:29:11.268Z,1010.62
2019-05-01T06:32:59.357Z,1010.70
2019-05-01T06:33:59.368Z,1010.64
2019-05-01T06:35:03.066Z,1010.65
2019-05-01T06:36:00.369Z,1010.65
2019-05-01T06:36:59.266Z,1010.64
2019-05-01T06:38:00.765Z,1010.65
2019-05-01T06:38:59.223Z,1010.70
2019-05-01T06:39:59.251Z,1010.67
2019-05-01T06:40:59.983Z,1010.71
2019-05-01T06:41:59.268Z,1010.70
2019-05-01T06:42:59.144Z,1010.77
2019-05-01T06:44:02.402Z,1010.77
2019-05-01T06:44:59.124Z,1010.74
2019-05-01T06:45:59.983Z,1010.74
2019-05-01T06:47:03.393Z,1010.77
2019-05-01T06:48:00.151Z,1010.72
2019-05-01T06:48:59.119Z,1010.76
2019-05-01T06:50:01.245Z,1010.72
2019-05-01T06:51:00.073Z,1010.76
2019-05-01T06:51:59.132Z,1010.74
2019-05-01T06:52:59.827Z,1010.77
2019-05-01T06:54:00.301Z,1010.73
2019-05-01T06:54:59.022Z,1010.69
2019-05-01T06:57:00.196Z,1010.68
2019-05-01T06:57:59.128Z,1010.73
2019-05-01T06:58:59.071Z,1010.71
2019-05-01T07:00:03.149Z,1010.68
2019-05-01T07:00:59.945Z,1010.71
2019-05-01T07:02:00.242Z,1010.74
2019-05-01T07:02:58.931Z,1010.71
2019-05-01T07:04:06.152Z,1010.74
2019-05-01T07:05:00.023Z,1010.71
2019-05-01T07:05:58.925Z,1010.73
2019-05-01T07:07:01.909Z,1010.73
2019-05-01T07:07:59.075Z,1010.74
2019-05-01T07:08:58.859Z,1010.75
2019-05-01T07:09:58.980Z,1010.76
2019-05-01T07:10:58.859Z,1010.74
2019-05-01T07:13:04.752Z,1010.72
2019-05-01T07:14:00.237Z,1010.79
2019-05-01T07:14:58.823Z,1010.79
2019-05-01T07:16:03.028Z,1010.79
2019-05-01T07:16:58.780Z,1010.82
2019-05-01T07:17:58.914Z,1010.84
2019-05-01T07:19:05.761Z,1010.82
2019-05-01T07:19:59.771Z,1010.78
2019-05-01T07:20:58.828Z,1010.79
2019-05-01T07:22:01.875Z,1010.80
2019-05-01T07:22:58.779Z,1010.80
2019-05-01T07:23:58.705Z,1010.80
2019-05-01T07:25:03.387Z,1010.75
2019-05-01T07:25:59.694Z,1010.77
2019-05-01T07:26:59.861Z,1010.80
2019-05-01T07:27:59.750Z,1010.75
2019-05-01T07:28:58.815Z,1010.79
2019-05-01T07:29:58.682Z,1010.73
2019-05-01T07:32:01.659Z,1010.76
2019-05-01T07:33:59.675Z,1010.71
2019-05-01T07:35:01.996Z,1010.74
2019-05-01T07:35:58.629Z,1010.78
2019-05-01T07:38:02.324Z,1010.68
2019-05-01T07:39:00.817Z,1010.70
2019-05-01T07:39:58.533Z,1010.78
2019-05-01T07:41:03.337Z,1010.75
2019-05-01T07:41:58.503Z,1010.71
2019-05-01T07:43:00.516Z,1010.70
2019-05-01T07:43:59.642Z,1010.81
2019-05-01T07:45:03.804Z,1010.75
2019-05-01T07:46:02.199Z,1010.72
2019-05-01T07:47:00.951Z,1010.76
2019-05-01T07:48:01.026Z,1010.74
2019-05-01T07:49:01.270Z,1010.78
2019-05-01T07:49:58.419Z,1010.68
2019-05-01T07:51:01.858Z,1010.73
2019-05-01T07:52:01.705Z,1010.77
2019-05-01T07:54:04.011Z,1010.76
2019-05-01T07:55:01.313Z,1010.76
2019-05-01T07:55:58.382Z,1010.75
2019-05-01T07:57:59.487Z,1010.71
2019-05-01T08:00:03.595Z,1010.73
2019-05-01T08:01:01.282Z,1010.75
2019-05-01T08:01:58.331Z,1010.78
2019-05-01T08:03:59.337Z,1010.76
2019-05-01T08:05:59.305Z,1010.72
2019-05-01T08:08:02.829Z,1010.72
2019-05-01T08:09:59.288Z,1010.73
2019-05-01T08:11:05.304Z,1010.71
2019-05-01T08:11:59.195Z,1010.71
2019-05-01T08:14:07.267Z,1010.76
2019-05-01T08:14:59.157Z,1010.74
2019-05-01T08:16:02.118Z,1010.72
2019-05-01T08:16:59.234Z,1010.68
2019-05-01T08:19:04.039Z,1010.72
2019-05-01T08:20:59.183Z,1010.73
2019-05-01T08:22:59.118Z,1010.71
2019-05-01T08:24:01.921Z,1010.67
2019-05-01T08:24:58.710Z,1010.71
2019-05-01T08:26:59.111Z,1010.71
2019-05-01T08:29:59.059Z,1010.60
2019-05-01T08:31:01.630Z,1010.72
2019-05-01T08:31:58.819Z,1010.67
2019-05-01T08:33:01.377Z,1010.66
2019-05-01T08:36:49.854Z,1010.66
2019-05-01T08:37:53.900Z,1010.61
2019-05-01T08:38:50.804Z,1010.64
2019-05-01T08:39:50.247Z,1010.62
2019-05-01T08:40:50.789Z,1010.64
2019-05-01T08:41:50.742Z,1010.67
2019-05-01T08:42:49.695Z,1010.67
2019-05-01T08:43:54.099Z,1010.66
2019-05-01T08:44:50.696Z,1010.76
2019-05-01T08:45:49.687Z,1010.72
2019-05-01T08:46:50.944Z,1010.73
2019-05-01T08:47:49.847Z,1010.71
2019-05-01T08:48:49.648Z,1010.78
2019-05-01T08:50:54.653Z,1010.73
2019-05-01T08:51:50.598Z,1010.66
2019-05-01T08:52:49.678Z,1010.70
2019-05-01T08:53:52.738Z,1010.69
2019-05-01T08:54:50.676Z,1010.75
2019-05-01T08:55:49.552Z,1010.75
2019-05-01T08:56:53.090Z,1010.69
2019-05-01T08:57:50.571Z,1010.67
2019-05-01T08:58:50.565Z,1010.72
2019-05-01T08:59:49.515Z,1010.64
2019-05-01T09:00:49.590Z,1010.70
2019-05-01T09:01:50.636Z,1010.69
2019-05-01T09:02:50.466Z,1010.70
2019-05-01T09:03:53.895Z,1010.75
2019-05-01T09:05:01.685Z,1010.73
2019-05-01T09:05:52.157Z,1010.75
2019-05-01T09:06:50.487Z,1010.79
2019-05-01T09:07:51.301Z,1010.76
2019-05-01T09:08:50.462Z,1010.78
2019-05-01T09:09:49.569Z,1010.78
2019-05-01T09:10:49.891Z,1010.80
2019-05-01T09:11:49.477Z,1010.76
2019-05-01T09:12:51.962Z,1010.78
2019-05-01T09:13:49.348Z,1010.75
2019-05-01T09:14:51.172Z,1010.72
2019-05-01T09:15:49.474Z,1010.79
2019-05-01T09:16:52.180Z,1010.70
2019-05-01T09:17:49.336Z,1010.78
2019-05-01T09:18:49.419Z,1010.71
2019-05-01T09:19:49.284Z,1010.75
2019-05-01T09:20:49.314Z,1010.73
2019-05-01T09:21:49.257Z,1010.70
2019-05-01T09:22:49.372Z,1010.74
2019-05-01T09:23:51.385Z,1010.74
2019-05-01T09:24:49.345Z,1010.69
2019-05-01T09:25:49.220Z,1010.74
2019-05-01T09:26:50.254Z,1010.73
2019-05-01T09:27:49.254Z,1010.65
2019-05-01T09:28:49.267Z,1010.67
2019-05-01T09:29:51.589Z,1010.66
2019-05-01T09:30:49.284Z,1010.67
2019-05-01T09:31:49.194Z,1010.62
2019-05-01T09:32:54.264Z,1010.58
2019-05-01T09:33:50.136Z,1010.64
2019-05-01T09:34:49.217Z,1010.59
2019-05-01T09:35:49.109Z,1010.61
2019-05-01T09:36:49.123Z,1010.59
2019-05-01T09:37:49.140Z,1010.59
2019-05-01T09:38:50.087Z,1010.57
2019-05-01T09:39:49.083Z,1010.59
2019-05-01T09:40:49.174Z,1010.61
2019-05-01T09:41:49.053Z,1010.60
2019-05-01T09:42:49.060Z,1010.63
2019-05-01T09:43:49.051Z,1010.61
2019-05-01T09:44:49.072Z,1010.64
2019-05-01T09:45:49.000Z,1010.69
2019-05-01T09:46:49.086Z,1010.63
2019-05-01T09:47:48.979Z,1010.56
2019-05-01T09:48:49.034Z,1010.58
2019-05-01T09:49:53.781Z,1010.60
2019-05-01T09:51:49.993Z,1010.58
2019-05-01T09:52:49.053Z,1010.60
2019-05-01T09:53:48.943Z,1010.65
2019-05-01T09:54:48.944Z,1010.60
2019-05-01T09:55:48.893Z,1010.52
2019-05-01T09:56:48.953Z,1010.60
2019-05-01T09:57:48.873Z,1010.54
2019-05-01T09:58:49.004Z,1010.56
2019-05-01T09:59:48.844Z,1010.58
2019-05-01T10:00:52.575Z,1010.57
2019-05-01T10:01:48.840Z,1010.55
2019-05-01T10:02:48.902Z,1010.53
2019-05-01T10:03:49.323Z,1010.48
2019-05-01T10:04:49.867Z,1010.49
2019-05-01T10:05:48.778Z,1010.48
2019-05-01T10:06:52.395Z,1010.47
2019-05-01T10:07:49.844Z,1010.48
2019-05-01T10:08:48.876Z,1010.49
2019-05-01T10:09:52.163Z,1010.53
2019-05-01T10:10:48.847Z,1010.49
2019-05-01T10:11:48.715Z,1010.42
2019-05-01T10:12:48.771Z,1010.49
2019-05-01T10:13:48.697Z,1010.37
2019-05-01T10:14:48.799Z,1010.41
2019-05-01T10:15:48.700Z,1010.38
2019-05-01T10:16:48.783Z,1010.40
2019-05-01T10:17:48.647Z,1010.39
2019-05-01T10:18:48.714Z,1010.38
2019-05-01T10:19:50.186Z,1010.34
2019-05-01T10:20:48.716Z,1010.37
2019-05-01T10:21:48.617Z,1010.29
2019-05-01T10:22:48.649Z,1010.33
2019-05-01T10:23:51.696Z,1010.36
2019-05-01T10:24:48.680Z,1010.31
2019-05-01T10:25:49.821Z,1010.32
2019-05-01T10:26:48.706Z,1010.33
2019-05-01T10:27:48.538Z,1010.35
2019-05-01T10:28:50.135Z,1010.32
2019-05-01T10:29:48.577Z,1010.31
2019-05-01T10:30:48.578Z,1010.34
2019-05-01T10:31:48.501Z,1010.33
2019-05-01T10:32:48.595Z,1010.24
2019-05-01T10:33:48.474Z,1010.26
2019-05-01T10:34:48.536Z,1010.28
2019-05-01T10:35:48.461Z,1010.28
2019-05-01T10:36:49.791Z,1010.29
2019-05-01T10:37:49.435Z,1010.30
2019-05-01T10:38:48.530Z,1010.25
2019-05-01T10:39:50.128Z,1010.21
2019-05-01T10:41:49.492Z,1010.25
2019-05-01T10:42:48.455Z,1010.17
2019-05-01T10:43:48.404Z,1010.18
2019-05-01T10:44:48.504Z,1010.24
2019-05-01T10:45:48.360Z,1010.23
2019-05-01T10:46:48.391Z,1010.17
2019-05-01T10:47:48.347Z,1010.14
2019-05-01T10:48:48.408Z,1010.18
2019-05-01T10:49:48.306Z,1010.18
2019-05-01T10:50:48.545Z,1010.17
2019-05-01T10:51:48.277Z,1010.15
2019-05-01T10:52:48.324Z,1010.11
2019-05-01T10:53:48.291Z,1010.12
2019-05-01T10:54:48.340Z,1010.14
2019-05-01T10:55:48.399Z,1010.13
2019-05-01T10:56:48.350Z,1010.11
2019-05-01T10:57:48.224Z,1010.15
2019-05-01T10:58:48.259Z,1010.10
2019-05-01T10:59:48.192Z,1010.09
2019-05-01T11:00:48.319Z,1010.11
2019-05-01T11:01:48.180Z,1010.14
2019-05-01T11:02:48.293Z,1010.11
2019-05-01T11:03:48.147Z,1010.04
2019-05-01T11:04:48.200Z,1010.08
2019-05-01T11:05:55.625Z,1010.10
2019-05-01T11:06:49.119Z,1010.05
2019-05-01T11:07:48.323Z,1009.98
2019-05-01T11:08:48.096Z,1010.01
2019-05-01T11:09:48.140Z,1009.96
2019-05-01T11:10:48.082Z,1010.00
2019-05-01T11:11:48.181Z,1010.04
2019-05-01T11:12:48.057Z,1009.94
2019-05-01T11:13:48.160Z,1009.93
2019-05-01T11:14:48.036Z,1010.02
2019-05-01T11:15:48.112Z,1009.93
2019-05-01T11:16:48.040Z,1009.96
2019-05-01T11:17:48.092Z,1009.92
2019-05-01T11:18:47.988Z,1009.91
2019-05-01T11:19:48.113Z,1009.98
2019-05-01T11:20:47.969Z,1009.89
2019-05-01T11:21:48.045Z,1009.92
2019-05-01T11:22:47.953Z,1009.88
2019-05-01T11:23:48.024Z,1009.90
2019-05-01T11:24:47.921Z,1009.84
2019-05-01T11:25:48.065Z,1009.82
2019-05-01T11:26:47.939Z,1009.83
2019-05-01T11:27:47.956Z,1009.80
2019-05-01T11:28:47.912Z,1009.82
2019-05-01T11:30:48.918Z,1009.81
2019-05-01T11:31:47.914Z,1009.82
2019-05-01T11:32:47.842Z,1009.77
2019-05-01T11:33:47.896Z,1009.86
2019-05-01T11:34:47.851Z,1009.85
2019-05-01T11:35:47.908Z,1009.71
2019-05-01T11:36:47.818Z,1009.72
2019-05-01T11:37:47.818Z,1009.66
2019-05-01T11:38:47.771Z,1009.70
2019-05-01T11:39:47.881Z,1009.68
2019-05-01T11:40:47.756Z,1009.71
2019-05-01T11:41:47.917Z,1009.66
2019-05-01T11:42:47.742Z,1009.72
2019-05-01T11:43:47.762Z,1009.72
2019-05-01T11:44:47.713Z,1009.68
2019-05-01T11:45:47.778Z,1009.68
2019-05-01T11:46:47.692Z,1009.65
2019-05-01T11:47:47.815Z,1009.64
2019-05-01T11:48:47.671Z,1009.64
2019-05-01T11:49:47.702Z,1009.58
2019-05-01T11:50:47.640Z,1009.68
2019-05-01T11:51:47.710Z,1009.69
2019-05-01T11:52:47.655Z,1009.72
2019-05-01T11:53:47.729Z,1009.68
2019-05-01T11:54:47.599Z,1009.63
2019-05-01T11:55:47.636Z,1009.67
2019-05-01T11:56:47.572Z,1009.65
2019-05-01T11:57:47.743Z,1009.58
2019-05-01T11:58:47.551Z,1009.70
2019-05-01T11:59:47.664Z,1009.60
2019-05-01T12:00:47.530Z,1009.60
2019-05-01T12:01:47.575Z,1009.52
2019-05-01T12:02:47.555Z,1009.57
2019-05-01T12:03:47.588Z,1009.47
2019-05-01T12:04:47.486Z,1009.50
2019-05-01T12:05:47.502Z,1009.48
2019-05-01T12:06:47.526Z,1009.50
2019-05-01T12:07:47.520Z,1009.44
2019-05-01T12:08:47.468Z,1009.58
2019-05-01T12:09:47.523Z,1009.60
2019-05-01T12:10:47.426Z,1009.55
2019-05-01T12:11:58.352Z,1009.57
2019-05-01T12:12:58.330Z,1009.50
2019-05-01T12:13:58.234Z,1009.47
2019-05-01T12:14:58.322Z,1009.55
2019-05-01T12:15:58.218Z,1009.47
2019-05-01T12:16:58.338Z,1009.51
2019-05-01T12:17:58.230Z,1009.50
2019-05-01T12:18:58.241Z,1009.52
2019-05-01T12:19:58.177Z,1009.46
2019-05-01T12:20:58.259Z,1009.52
2019-05-01T12:21:58.150Z,1009.45
2019-05-01T12:22:58.184Z,1009.43
2019-05-01T12:23:58.154Z,1009.37
2019-05-01T12:24:58.208Z,1009.40
2019-05-01T12:25:58.108Z,1009.38
2019-05-01T12:26:58.209Z,1009.37
2019-05-01T12:27:58.095Z,1009.35
2019-05-01T12:28:58.143Z,1009.35
2019-05-01T12:29:58.059Z,1009.30
2019-05-01T12:30:58.121Z,1009.36
2019-05-01T12:31:58.040Z,1009.37
2019-05-01T12:32:58.134Z,1009.31
2019-05-01T12:33:58.051Z,1009.32
2019-05-01T12:34:58.047Z,1009.31
2019-05-01T12:35:58.046Z,1009.29
2019-05-01T12:36:58.067Z,1009.29
2019-05-01T12:37:58.056Z,1009.14
2019-05-01T12:38:58.113Z,1009.22
2019-05-01T12:39:57.988Z,1009.25
2019-05-01T12:40:57.984Z,1009.20
2019-05-01T12:41:57.938Z,1009.27
2019-05-01T12:42:58.014Z,1009.20
2019-05-01T12:43:57.918Z,1009.20
2019-05-01T12:44:58.042Z,1009.16
2019-05-01T12:45:57.889Z,1009.11
2019-05-01T12:46:57.921Z,1009.08
2019-05-01T12:47:57.863Z,1009.12
2019-05-01T12:48:57.938Z,1009.09
2019-05-01T12:49:57.869Z,1009.08
2019-05-01T12:50:57.953Z,1009.04
2019-05-01T12:52:09.780Z,1009.06
2019-05-01T12:52:58.813Z,1009.00
2019-05-01T12:53:57.870Z,1009.04
2019-05-01T12:54:57.836Z,1009.01
2019-05-01T12:55:57.886Z,1009.01
2019-05-01T12:56:57.771Z,1009.04
2019-05-01T12:57:58.002Z,1009.02
2019-05-01T12:58:57.753Z,1008.98
2019-05-01T13:00:08.527Z,1008.95
2019-05-01T13:00:58.748Z,1009.01
2019-05-01T13:01:57.842Z,1008.96
2019-05-01T13:02:57.706Z,1008.97
2019-05-01T13:03:57.742Z,1008.91
2019-05-01T13:04:57.705Z,1008.95
2019-05-01T13:05:57.783Z,1008.90